createdAt,value
2022-10-22T00:00:49.827Z,13.13
2022-10-22T00:03:16.815Z,13.07
2022-10-22T00:05:44.463Z,13.03
2022-10-22T00:08:12.198Z,13.16
2022-10-22T00:10:42.011Z,13.04
2022-10-22T00:13:09.528Z,13.14
2022-10-22T00:15:36.772Z,13.13
2022-10-22T00:18:04.512Z,13.04
2022-10-22T00:20:32.941Z,13.04
2022-10-22T00:23:00.027Z,13.09
2022-10-22T00:25:27.182Z,13.07
2022-10-22T00:27:54.366Z,12.94
2022-10-22T00:30:21.420Z,13.05
2022-10-22T00:32:48.576Z,12.92
2022-10-22T00:35:15.606Z,13.01
2022-10-22T00:37:42.756Z,12.91
2022-10-22T00:40:10.735Z,12.99
2022-10-22T00:42:38.119Z,12.95
2022-10-22T00:45:11.542Z,12.94
2022-10-22T00:47:44.490Z,12.93
2022-10-22T00:50:21.972Z,12.81
2022-10-22T00:52:50.853Z,12.82
2022-10-22T00:55:19.656Z,12.71
2022-10-22T00:57:47.611Z,12.69
2022-10-22T01:00:16.399Z,12.76
2022-10-22T01:02:44.006Z,12.68
2022-10-22T01:05:11.302Z,12.72
2022-10-22T01:07:43.436Z,12.63
2022-10-22T01:10:27.533Z,12.63
2022-10-22T01:13:01.271Z,12.67
2022-10-22T01:15:46.082Z,12.66
2022-10-22T01:18:24.271Z,12.62
2022-10-22T01:21:14.410Z,12.61
2022-10-22T01:24:12.892Z,12.56
2022-10-22T01:27:05.736Z,12.61
2022-10-22T01:30:00.670Z,12.60
2022-10-22T01:32:30.798Z,12.42
2022-10-22T01:35:02.993Z,12.40
2022-10-22T01:37:32.307Z,12.48
2022-10-22T01:40:01.880Z,12.44
2022-10-22T01:42:29.256Z,12.33
2022-10-22T01:44:56.382Z,12.46
2022-10-22T01:48:03.074Z,12.43
2022-10-22T01:50:45.434Z,12.38
2022-10-22T01:53:22.164Z,12.31
2022-10-22T01:55:49.500Z,12.37
2022-10-22T01:58:43.696Z,12.35
2022-10-22T02:01:22.758Z,12.31
2022-10-22T02:04:05.654Z,12.32
2022-10-22T02:06:34.731Z,12.28
2022-10-22T02:09:04.053Z,12.21
2022-10-22T02:11:31.570Z,12.27
2022-10-22T02:14:01.894Z,12.19
2022-10-22T02:16:30.787Z,12.25
2022-10-22T02:19:02.614Z,12.23
2022-10-22T02:21:31.092Z,12.28
2022-10-22T02:23:58.797Z,12.23
2022-10-22T02:26:35.058Z,12.22
2022-10-22T02:29:31.039Z,12.17
2022-10-22T02:32:01.523Z,12.06
2022-10-22T02:34:32.708Z,12.00
2022-10-22T02:37:02.865Z,12.11
2022-10-22T02:39:31.883Z,12.08
2022-10-22T02:41:59.759Z,12.07
2022-10-22T02:44:26.776Z,12.10
2022-10-22T02:46:53.877Z,12.06
2022-10-22T02:49:20.988Z,12.03
2022-10-22T02:51:48.518Z,12.03
2022-10-22T02:54:15.545Z,12.02
2022-10-22T02:56:42.680Z,11.88
2022-10-22T02:59:09.862Z,12.01
2022-10-22T03:01:36.972Z,12.00
2022-10-22T03:04:04.447Z,11.93
2022-10-22T03:06:31.570Z,11.86
2022-10-22T03:08:58.814Z,11.85
2022-10-22T03:11:25.939Z,11.80
2022-10-22T03:13:53.156Z,11.81
2022-10-22T03:16:20.197Z,11.82
2022-10-22T03:18:47.306Z,11.80
2022-10-22T03:21:38.226Z,11.79
2022-10-22T03:24:12.306Z,11.83
2022-10-22T03:26:41.720Z,11.82
2022-10-22T03:29:11.612Z,11.74
2022-10-22T03:31:38.892Z,11.74
2022-10-22T03:34:05.902Z,11.72
2022-10-22T03:36:34.013Z,11.67
2022-10-22T03:39:02.683Z,11.67
2022-10-22T03:41:29.780Z,11.61
2022-10-22T03:43:57.851Z,11.52
2022-10-22T03:46:24.913Z,11.58
2022-10-22T03:48:52.009Z,11.50
2022-10-22T03:51:19.011Z,11.54
2022-10-22T03:53:46.082Z,11.55
2022-10-22T03:56:14.305Z,11.45
2022-10-22T03:58:42.319Z,11.52
2022-10-22T04:01:11.874Z,11.49
2022-10-22T04:03:39.679Z,11.45
2022-10-22T04:06:12.214Z,11.41
2022-10-22T04:08:40.987Z,11.50
2022-10-22T04:11:08.432Z,11.48
2022-10-22T04:13:35.584Z,11.45
2022-10-22T04:16:21.160Z,11.42
2022-10-22T04:18:49.891Z,11.43
2022-10-22T04:21:19.217Z,11.34
2022-10-22T04:23:48.250Z,11.43
2022-10-22T04:26:16.336Z,11.45
2022-10-22T04:28:43.901Z,11.33
2022-10-22T04:31:13.186Z,11.36
2022-10-22T04:33:41.467Z,11.35
2022-10-22T04:36:10.506Z,11.38
2022-10-22T04:38:38.543Z,11.31
2022-10-22T04:41:10.443Z,11.35
2022-10-22T04:43:37.590Z,11.28
2022-10-22T04:46:05.461Z,11.23
2022-10-22T04:48:32.595Z,11.19
2022-10-22T04:51:00.937Z,11.20
2022-10-22T04:53:28.348Z,11.18
2022-10-22T04:55:55.464Z,11.19
2022-10-22T04:58:22.466Z,11.07
2022-10-22T05:00:49.636Z,11.18
2022-10-22T05:03:16.704Z,11.19
2022-10-22T05:05:43.739Z,11.16
2022-10-22T05:08:10.721Z,11.00
2022-10-22T05:10:37.769Z,11.08
2022-10-22T05:13:05.068Z,11.09
2022-10-22T05:15:33.875Z,11.08
2022-10-22T05:18:00.957Z,10.99
2022-10-22T05:20:28.092Z,11.08
2022-10-22T05:22:55.126Z,11.04
2022-10-22T05:25:22.247Z,11.00
2022-10-22T05:27:50.633Z,10.85
2022-10-22T05:30:17.845Z,10.93
2022-10-22T05:32:45.176Z,10.95
2022-10-22T05:35:12.265Z,10.95
2022-10-22T05:37:39.468Z,10.93
2022-10-22T05:40:19.505Z,10.93
2022-10-22T05:42:54.233Z,10.93
2022-10-22T05:45:21.343Z,10.88
2022-10-22T05:47:48.369Z,10.87
2022-10-22T05:50:15.594Z,10.77
2022-10-22T05:52:42.936Z,10.79
2022-10-22T05:55:10.132Z,10.75
2022-10-22T05:57:37.222Z,10.84
2022-10-22T06:00:04.913Z,10.70
2022-10-22T06:02:31.948Z,10.76
2022-10-22T06:04:59.111Z,10.76
2022-10-22T06:07:26.247Z,10.77
2022-10-22T06:09:54.058Z,10.74
2022-10-22T06:12:21.096Z,10.75
2022-10-22T06:14:48.238Z,10.58
2022-10-22T06:17:15.239Z,10.70
2022-10-22T06:19:42.776Z,10.76
2022-10-22T06:22:09.797Z,10.72
2022-10-22T06:24:39.446Z,10.74
2022-10-22T06:27:08.697Z,10.72
2022-10-22T06:29:35.889Z,10.62
2022-10-22T06:32:02.923Z,10.64
2022-10-22T06:34:30.617Z,10.60
2022-10-22T06:36:57.722Z,10.65
2022-10-22T06:39:24.844Z,10.53
2022-10-22T06:41:52.013Z,10.62
2022-10-22T06:44:20.072Z,10.52
2022-10-22T06:46:52.239Z,10.72
2022-10-22T06:49:21.006Z,10.65
2022-10-22T06:51:53.132Z,10.76
2022-10-22T06:54:21.656Z,10.69
2022-10-22T06:56:48.680Z,10.75
2022-10-22T06:59:15.764Z,10.72
2022-10-22T07:01:43.302Z,10.74
2022-10-22T07:04:10.928Z,10.79
2022-10-22T07:06:38.272Z,10.75
2022-10-22T07:09:05.941Z,10.78
2022-10-22T07:11:44.296Z,10.67
2022-10-22T07:14:12.020Z,10.68
2022-10-22T07:16:39.820Z,10.79
2022-10-22T07:19:06.840Z,10.81
2022-10-22T07:21:33.918Z,10.85
2022-10-22T07:24:01.055Z,10.85
2022-10-22T07:26:31.247Z,10.79
2022-10-22T07:29:00.132Z,10.96
2022-10-22T07:31:27.711Z,11.01
2022-10-22T07:33:54.925Z,10.89
2022-10-22T07:36:22.942Z,11.22
2022-10-22T07:38:56.242Z,11.19
2022-10-22T07:41:24.042Z,11.21
2022-10-22T07:43:53.943Z,11.14
2022-10-22T07:46:21.345Z,11.29
2022-10-22T07:48:49.144Z,11.32
2022-10-22T07:51:16.706Z,11.32
2022-10-22T07:53:44.009Z,11.38
2022-10-22T07:56:11.170Z,11.32
2022-10-22T07:58:38.339Z,11.49
2022-10-22T08:01:08.121Z,11.57
2022-10-22T08:03:36.146Z,11.68
2022-10-22T08:06:03.888Z,11.66
2022-10-22T08:08:31.264Z,11.91
2022-10-22T08:11:00.711Z,12.09
2022-10-22T08:13:30.791Z,12.10
2022-10-22T08:16:01.601Z,12.16
2022-10-22T08:18:29.475Z,12.23
2022-10-22T08:20:56.705Z,12.26
2022-10-22T08:23:26.223Z,12.38
2022-10-22T08:25:56.762Z,12.48
2022-10-22T08:28:24.107Z,12.54
2022-10-22T08:30:51.336Z,12.57
2022-10-22T08:33:18.548Z,12.76
2022-10-22T08:35:50.148Z,12.82
2022-10-22T08:38:18.334Z,12.86
2022-10-22T08:43:51.037Z,13.16
2022-10-22T08:46:40.857Z,13.26
2022-10-22T08:49:18.168Z,13.60
2022-10-22T08:51:45.643Z,13.71
2022-10-22T08:54:55.309Z,13.78
2022-10-22T08:57:49.916Z,13.84
2022-10-22T09:00:30.681Z,13.96
2022-10-22T09:03:18.965Z,14.30
2022-10-22T09:05:56.206Z,14.26
2022-10-22T09:08:23.664Z,14.55
2022-10-22T09:11:01.570Z,14.72
2022-10-22T09:13:29.258Z,14.78
2022-10-22T09:16:01.628Z,14.89
2022-10-22T09:18:59.566Z,14.98
2022-10-22T09:21:41.568Z,15.15
2022-10-22T09:24:33.905Z,15.12
2022-10-22T09:27:02.415Z,15.17
2022-10-22T09:29:33.803Z,15.31
2022-10-22T09:32:01.320Z,15.45
2022-10-22T09:34:29.039Z,15.76
2022-10-22T09:37:05.163Z,15.92
2022-10-22T09:39:41.382Z,15.98
2022-10-22T09:42:08.832Z,15.91
2022-10-22T09:44:37.931Z,15.99
2022-10-22T09:47:43.437Z,16.29
2022-10-22T09:50:23.077Z,16.58
2022-10-22T09:53:13.868Z,16.71
2022-10-22T09:55:43.013Z,16.90
2022-10-22T09:58:14.550Z,16.97
2022-10-22T10:00:45.634Z,17.06
2022-10-22T10:03:22.017Z,17.33
2022-10-22T10:05:53.362Z,17.43
2022-10-22T10:08:20.793Z,17.58
2022-10-22T10:10:55.801Z,17.63
2022-10-22T10:13:28.758Z,17.69
2022-10-22T10:16:05.380Z,17.92
2022-10-22T10:19:02.156Z,17.89
2022-10-22T10:21:38.147Z,18.02
2022-10-22T10:24:27.741Z,18.06
2022-10-22T10:27:16.431Z,18.10
2022-10-22T10:30:24.271Z,18.17
2022-10-22T10:33:24.164Z,18.23
2022-10-22T10:36:17.787Z,18.46
2022-10-22T10:38:56.664Z,18.45
2022-10-22T10:41:39.208Z,18.45
2022-10-22T10:44:41.941Z,18.64
2022-10-22T10:48:01.554Z,18.75
2022-10-22T10:50:57.182Z,18.75
2022-10-22T10:53:51.904Z,19.00
2022-10-22T10:56:39.468Z,19.14
2022-10-22T10:59:15.846Z,19.34
2022-10-22T11:01:42.923Z,19.47
2022-10-22T11:04:34.785Z,19.47
2022-10-22T11:07:22.772Z,19.41
2022-10-22T11:10:01.821Z,19.59
2022-10-22T11:12:36.729Z,19.48
2022-10-22T11:15:12.051Z,19.65
2022-10-22T11:17:43.063Z,19.77
2022-10-22T11:20:41.383Z,19.72
2022-10-22T11:23:35.800Z,19.94
2022-10-22T11:26:06.265Z,19.91
2022-10-22T11:28:40.300Z,19.87
2022-10-22T11:31:16.070Z,19.96
2022-10-22T11:34:32.746Z,20.29
2022-10-22T11:37:02.284Z,20.25
2022-10-22T11:39:39.465Z,20.34
2022-10-22T11:42:09.991Z,20.36
2022-10-22T11:45:00.847Z,20.47
2022-10-22T11:47:52.576Z,20.48
2022-10-22T11:50:26.826Z,20.57
2022-10-22T11:53:06.117Z,20.63
2022-10-22T11:55:48.116Z,20.56
2022-10-22T11:58:43.979Z,20.62
2022-10-22T12:01:11.315Z,20.67
2022-10-22T12:03:41.342Z,20.73
2022-10-22T12:06:12.245Z,20.74
2022-10-22T12:09:01.902Z,20.68
2022-10-22T12:11:49.491Z,20.74
2022-10-22T12:14:52.061Z,20.76
2022-10-22T12:17:21.614Z,20.79
2022-10-22T12:20:13.692Z,20.84
2022-10-22T12:22:41.132Z,20.88
2022-10-22T12:25:22.473Z,20.92
2022-10-22T12:27:55.167Z,20.83
2022-10-22T12:30:24.921Z,20.96
2022-10-22T12:32:57.928Z,21.04
2022-10-22T12:35:26.316Z,21.14
2022-10-22T12:37:58.044Z,21.18
2022-10-22T12:40:28.430Z,21.05
2022-10-22T12:45:43.096Z,21.13
2022-10-22T12:48:16.385Z,21.15
2022-10-22T12:50:50.138Z,21.18
2022-10-22T12:53:24.947Z,21.17
2022-10-22T12:55:54.128Z,21.31
2022-10-22T12:58:27.112Z,21.35
2022-10-22T13:00:58.735Z,21.37
2022-10-22T13:03:29.318Z,21.33
2022-10-22T13:05:56.402Z,21.36
2022-10-22T13:08:29.284Z,21.34
2022-10-22T13:10:56.644Z,21.42
2022-10-22T13:13:45.724Z,21.48
2022-10-22T13:16:18.479Z,21.40
2022-10-22T13:18:47.044Z,21.44
2022-10-22T13:21:27.257Z,21.55
2022-10-22T13:24:01.110Z,21.57
2022-10-22T13:26:36.896Z,21.69
2022-10-22T13:29:12.216Z,21.68
2022-10-22T13:31:47.094Z,21.65
2022-10-22T13:34:18.475Z,21.65
2022-10-22T13:36:46.143Z,21.71
2022-10-22T13:39:20.234Z,21.80
2022-10-22T13:41:50.412Z,21.78
2022-10-22T13:44:20.714Z,21.83
2022-10-22T13:46:49.233Z,21.82
2022-10-22T13:49:23.557Z,21.84
2022-10-22T13:51:51.875Z,21.69
2022-10-22T13:54:24.298Z,21.76
2022-10-22T13:56:51.427Z,21.63
2022-10-22T13:59:22.758Z,21.83
2022-10-22T14:01:51.889Z,21.90
2022-10-22T14:04:19.020Z,21.83
2022-10-22T14:06:46.093Z,21.92
2022-10-22T14:09:15.780Z,21.94
2022-10-22T14:11:43.328Z,21.99
2022-10-22T14:14:14.471Z,22.01
2022-10-22T14:16:41.855Z,22.13
2022-10-22T14:19:15.540Z,22.08
2022-10-22T14:21:42.628Z,22.25
2022-10-22T14:24:13.143Z,22.30
2022-10-22T14:26:41.466Z,22.45
2022-10-22T14:29:09.708Z,22.34
2022-10-22T14:34:15.634Z,22.32
2022-10-22T14:36:44.198Z,22.39
2022-10-22T14:39:12.755Z,22.29
2022-10-22T14:41:41.161Z,22.39
2022-10-22T14:44:12.909Z,22.36
2022-10-22T14:46:44.375Z,22.29
2022-10-22T14:49:11.920Z,22.20
2022-10-22T14:51:39.630Z,22.26
2022-10-22T14:54:06.878Z,22.21
2022-10-22T14:56:34.226Z,22.10
2022-10-22T14:59:01.361Z,21.92
2022-10-22T15:01:28.425Z,21.90
2022-10-22T15:03:55.828Z,21.80
2022-10-22T15:06:22.911Z,21.79
2022-10-22T15:08:50.200Z,21.83
2022-10-22T15:11:17.893Z,21.71
2022-10-22T15:13:45.099Z,21.69
2022-10-22T15:16:15.223Z,21.70
2022-10-22T15:18:42.805Z,21.66
2022-10-22T15:21:21.818Z,21.67
2022-10-22T15:23:50.224Z,21.69
2022-10-22T15:26:17.831Z,21.66
2022-10-22T15:28:45.049Z,21.69
2022-10-22T15:31:14.557Z,21.63
2022-10-22T15:33:43.257Z,21.58
2022-10-22T15:36:16.532Z,21.63
2022-10-22T15:38:43.991Z,21.59
2022-10-22T15:41:13.705Z,21.42
2022-10-22T15:43:41.027Z,21.44
2022-10-22T15:46:19.691Z,21.42
2022-10-22T15:48:47.111Z,21.36
2022-10-22T15:51:18.400Z,21.29
2022-10-22T15:53:52.030Z,21.22
2022-10-22T15:56:20.119Z,21.32
2022-10-22T15:58:48.539Z,21.28
2022-10-22T16:01:16.009Z,21.22
2022-10-22T16:03:43.252Z,21.20
2022-10-22T16:06:11.771Z,21.14
2022-10-22T16:08:42.486Z,20.99
2022-10-22T16:11:10.459Z,20.98
2022-10-22T16:13:38.016Z,20.97
2022-10-22T16:16:08.251Z,20.85
2022-10-22T16:18:35.817Z,20.80
2022-10-22T16:21:04.404Z,20.68
2022-10-22T16:23:31.609Z,20.59
2022-10-22T16:26:02.198Z,20.53
2022-10-22T16:28:29.960Z,20.62
2022-10-22T16:30:57.498Z,20.51
2022-10-22T16:33:25.020Z,20.39
2022-10-22T16:35:52.415Z,20.32
2022-10-22T16:38:19.919Z,20.13
2022-10-22T16:40:47.288Z,20.09
2022-10-22T16:43:14.592Z,20.01
2022-10-22T16:45:49.147Z,19.96
2022-10-22T16:48:19.416Z,19.83
2022-10-22T16:50:46.605Z,19.70
2022-10-22T16:53:13.747Z,19.79
2022-10-22T16:55:41.523Z,19.58
2022-10-22T16:58:08.990Z,19.50
2022-10-22T17:00:39.398Z,19.54
2022-10-22T17:03:07.650Z,19.36
2022-10-22T17:05:37.709Z,19.33
2022-10-22T17:08:05.560Z,19.24
2022-10-22T17:10:32.682Z,19.18
2022-10-22T17:12:59.828Z,19.07
2022-10-22T17:15:27.031Z,18.91
2022-10-22T17:17:54.320Z,18.88
2022-10-22T17:20:21.704Z,18.86
2022-10-22T17:22:49.935Z,18.73
2022-10-22T17:25:24.436Z,18.67
2022-10-22T17:27:54.201Z,18.37
2022-10-22T17:30:24.982Z,18.49
2022-10-22T17:32:54.638Z,18.41
2022-10-22T17:35:21.750Z,18.30
2022-10-22T17:37:48.929Z,18.21
2022-10-22T17:40:16.123Z,18.16
2022-10-22T17:42:45.582Z,18.09
2022-10-22T17:45:12.754Z,17.97
2022-10-22T17:47:40.170Z,17.92
2022-10-22T17:50:08.074Z,17.75
2022-10-22T17:52:35.893Z,17.70
2022-10-22T17:55:03.931Z,17.67
2022-10-22T17:57:31.066Z,17.65
2022-10-22T17:59:58.169Z,17.56
2022-10-22T18:02:25.356Z,17.50
2022-10-22T18:04:52.653Z,17.39
2022-10-22T18:07:20.888Z,17.45
2022-10-22T18:09:48.270Z,17.38
2022-10-22T18:12:18.308Z,17.33
2022-10-22T18:14:47.198Z,17.24
2022-10-22T18:19:46.357Z,17.18
2022-10-22T18:22:13.484Z,17.10
2022-10-22T18:24:40.583Z,17.08
2022-10-22T18:27:07.681Z,16.93
2022-10-22T18:29:34.765Z,16.82
2022-10-22T18:32:01.852Z,16.87
2022-10-22T18:34:30.521Z,16.72
2022-10-22T18:36:57.698Z,16.77
2022-10-22T18:39:24.778Z,16.68
2022-10-22T18:41:51.898Z,16.54
2022-10-22T18:44:19.099Z,16.54
2022-10-22T18:46:46.230Z,16.54
2022-10-22T18:49:18.610Z,16.53
2022-10-22T18:51:48.799Z,16.52
2022-10-22T18:54:23.211Z,16.48
2022-10-22T18:56:55.560Z,16.40
2022-10-22T18:59:26.381Z,16.39
2022-10-22T19:01:55.333Z,16.37
2022-10-22T19:04:22.502Z,16.32
2022-10-22T19:06:49.719Z,16.24
2022-10-22T19:09:17.309Z,16.30
2022-10-22T19:11:45.719Z,16.30
2022-10-22T19:14:14.992Z,16.28
2022-10-22T19:16:42.305Z,16.29
2022-10-22T19:19:09.768Z,16.29
2022-10-22T19:21:38.524Z,16.19
2022-10-22T19:24:07.936Z,16.27
2022-10-22T19:26:35.835Z,16.22
2022-10-22T19:29:05.235Z,16.24
2022-10-22T19:31:36.182Z,16.18
2022-10-22T19:34:05.065Z,16.29
2022-10-22T19:36:33.176Z,16.20
2022-10-22T19:39:02.498Z,16.27
2022-10-22T19:41:43.289Z,16.25
2022-10-22T19:44:11.437Z,16.19
2022-10-22T19:46:38.936Z,16.16
2022-10-22T19:49:07.507Z,16.08
2022-10-22T19:51:40.590Z,16.07
2022-10-22T19:54:11.790Z,16.07
2022-10-22T19:56:39.526Z,16.06
2022-10-22T19:59:06.809Z,15.99
2022-10-22T20:01:35.199Z,15.95
2022-10-22T20:04:02.546Z,15.99
2022-10-22T20:06:30.739Z,16.07
2022-10-22T20:08:58.627Z,16.11
2022-10-22T20:11:28.399Z,16.02
2022-10-22T20:13:56.963Z,16.12
2022-10-22T20:16:32.411Z,16.11
2022-10-22T20:19:02.981Z,16.26
2022-10-22T20:21:31.834Z,16.31
2022-10-22T20:24:00.343Z,16.32
2022-10-22T20:26:29.400Z,16.32
2022-10-22T20:28:58.711Z,16.68
2022-10-22T20:31:29.568Z,16.68
2022-10-22T20:33:59.706Z,16.74
2022-10-22T20:36:28.973Z,16.82
2022-10-22T20:39:12.012Z,16.87
2022-10-22T20:41:40.980Z,16.96
2022-10-22T20:44:14.108Z,17.02
2022-10-22T20:46:42.227Z,17.02
2022-10-22T20:49:13.799Z,16.98
2022-10-22T20:51:42.328Z,17.13
2022-10-22T20:54:10.957Z,17.06
2022-10-22T20:56:40.414Z,17.41
2022-10-22T20:59:11.014Z,17.37
2022-10-22T21:01:43.387Z,17.58
2022-10-22T21:04:11.163Z,17.91
2022-10-22T21:06:40.738Z,18.06
2022-10-22T21:09:09.919Z,18.04
2022-10-22T21:11:38.352Z,17.99
2022-10-22T21:14:07.391Z,17.93
2022-10-22T21:16:40.422Z,17.93
2022-10-22T21:19:07.806Z,18.08
2022-10-22T21:21:34.938Z,18.35
2022-10-22T21:24:02.180Z,18.26
2022-10-22T21:26:29.540Z,18.14
2022-10-22T21:28:56.585Z,18.08
2022-10-22T21:31:26.493Z,18.11
2022-10-22T21:33:54.707Z,18.02
2022-10-22T21:36:23.558Z,18.04
2022-10-22T21:38:54.558Z,17.91
2022-10-22T21:41:23.497Z,17.89
2022-10-22T21:43:52.041Z,17.74
2022-10-22T21:46:26.522Z,17.81
2022-10-22T21:48:59.366Z,17.76
2022-10-22T21:51:26.525Z,17.73
2022-10-22T21:53:55.107Z,17.61
2022-10-22T21:56:27.025Z,17.66
2022-10-22T21:58:54.356Z,17.70
2022-10-22T22:01:22.345Z,17.68
2022-10-22T22:03:51.247Z,17.64
2022-10-22T22:06:21.670Z,17.63
2022-10-22T22:08:50.255Z,17.67
2022-10-22T22:11:19.705Z,17.71
2022-10-22T22:13:48.945Z,17.70
2022-10-22T22:16:21.310Z,17.75
2022-10-22T22:18:54.262Z,17.63
2022-10-22T22:21:22.336Z,17.57
2022-10-22T22:23:50.811Z,17.62
2022-10-22T22:26:25.314Z,17.68
2022-10-22T22:28:56.682Z,17.50
2022-10-22T22:31:29.590Z,17.52
2022-10-22T22:34:01.919Z,17.46
2022-10-22T22:36:34.393Z,17.46
2022-10-22T22:39:02.118Z,17.50
2022-10-22T22:41:29.291Z,17.43
2022-10-22T22:43:56.383Z,17.39
2022-10-22T22:46:23.500Z,17.47
2022-10-22T22:48:51.062Z,17.40
2022-10-22T22:51:18.491Z,17.37
2022-10-22T22:53:46.229Z,17.39
2022-10-22T22:56:20.546Z,17.39
2022-10-22T22:58:48.405Z,17.43
2022-10-22T23:01:37.042Z,17.50
2022-10-22T23:04:07.255Z,17.45
2022-10-22T23:06:37.341Z,17.36
2022-10-22T23:09:06.766Z,17.44
2022-10-22T23:11:34.300Z,17.37
2022-10-22T23:14:04.128Z,17.37
2022-10-22T23:16:33.886Z,17.29
2022-10-22T23:19:03.262Z,17.44
2022-10-22T23:21:33.152Z,17.43
2022-10-22T23:24:04.108Z,17.58
2022-10-22T23:26:37.451Z,17.56
2022-10-22T23:29:25.087Z,17.57
2022-10-22T23:31:53.217Z,17.56
2022-10-22T23:34:23.403Z,17.62
2022-10-22T23:36:52.387Z,17.65
2022-10-22T23:39:22.314Z,17.88
2022-10-22T23:41:49.708Z,17.81
2022-10-22T23:44:16.852Z,17.63
2022-10-22T23:46:43.961Z,17.95
2022-10-22T23:49:11.631Z,18.02
2022-10-22T23:51:40.327Z,18.13
2022-10-22T23:54:12.283Z,18.50
2022-10-22T23:56:39.568Z,18.32
2022-10-22T23:59:07.309Z,18.30
